Time;durP1;ratioP1;P1;durP2;ratioP2;P2;SDS_P1;SDS_P2;PMS_P1;PMS_P2;Temp;Humidity;BMP_temperature;BMP_pressure;BME280_temperature;BME280_humidity;BME280_pressure;Samples;Min_cycle;Max_cycle;Signal;HPM_P1;HPM_P2
2021/12/13 00:01:16;;;;;;;1.60;1.50;;;;;;;2.21;100.00;97563.38;4943395;28;20043;-84
2021/12/13 00:03:48;;;;;;;1.23;1.13;;;;;;;2.15;100.00;97561.75;4967608;28;20039;-84
2021/12/13 00:06:23;;;;;;;0.60;0.60;;;;;;;2.21;100.00;97560.75;4941983;28;20028;-85
2021/12/13 00:08:52;;;;;;;1.25;1.08;;;;;;;2.26;100.00;97561.47;4951096;28;20067;-85
2021/12/13 00:11:39;;;;;;;2.08;1.70;;;;;;;2.23;100.00;97568.59;4954627;28;20054;-85
2021/12/13 00:14:11;;;;;;;3.55;2.53;;;;;;;2.24;100.00;97565.06;4941379;29;20163;-86
2021/12/13 00:16:40;;;;;;;1.88;1.58;;;;;;;2.22;100.00;97562.44;4943540;29;20057;-85
2021/12/13 00:19:12;;;;;;;0.98;0.98;;;;;;;2.11;100.00;97554.00;4912510;29;20054;-85
2021/12/13 00:21:56;;;;;;;0.80;0.80;;;;;;;2.06;100.00;97542.72;4904105;29;20035;-85
2021/12/13 00:24:26;;;;;;;0.75;0.75;;;;;;;2.11;100.00;97561.91;4912377;29;20032;-85
2021/12/13 00:26:59;;;;;;;1.55;1.45;;;;;;;2.00;100.00;97566.63;4900669;29;20028;-84
2021/12/13 00:29:26;;;;;;;2.05;1.17;;;;;;;1.97;100.00;97562.28;4908063;29;20496;-85
2021/12/13 00:32:06;;;;;;;0.90;0.90;;;;;;;2.10;100.00;97573.34;4916863;29;20036;-84
2021/12/13 00:34:47;;;;;;;0.35;0.35;;;;;;;1.95;100.00;97563.22;4903508;29;20042;-85
2021/12/13 00:37:16;;;;;;;7.95;2.95;;;;;;;2.06;100.00;97577.00;4916692;29;20039;-84
2021/12/13 00:39:56;;;;;;;1.30;1.20;;;;;;;1.93;100.00;97557.16;4919311;29;20031;-84
2021/12/13 00:42:25;;;;;;;0.57;0.57;;;;;;;1.94;100.00;97550.97;4901614;29;20031;-84
2021/12/13 00:44:57;;;;;;;1.13;0.98;;;;;;;1.96;100.00;97562.34;4903838;29;20039;-82
2021/12/13 00:47:25;;;;;;;1.20;1.00;;;;;;;1.85;100.00;97567.88;4896540;29;20093;-85
2021/12/13 00:49:59;;;;;;;2.72;1.75;;;;;;;1.81;100.00;97555.72;4900209;29;20416;-85
2021/12/13 00:52:26;;;;;;;0.38;0.38;;;;;;;1.90;100.00;97586.25;4908618;29;20116;-84
2021/12/13 00:54:52;;;;;;;2.95;1.20;;;;;;;1.87;100.00;97573.13;4902231;29;20028;-85
2021/12/13 00:57:30;;;;;;;1.50;1.02;;;;;;;1.91;100.00;97573.00;4902697;29;20028;-85
2021/12/13 01:00:03;;;;;;;0.93;0.93;;;;;;;1.89;100.00;97568.69;4917342;29;20032;-85
2021/12/13 01:02:48;;;;;;;1.50;1.40;;;;;;;1.76;100.00;97551.44;4910954;29;20115;-85
2021/12/13 01:05:40;;;;;;;0.28;0.28;;;;;;;1.93;100.00;97565.94;4896322;29;20115;-85
2021/12/13 01:08:09;;;;;;;0.20;0.20;;;;;;;1.93;100.00;97565.94;4924286;29;20035;-85
2021/12/13 01:11:04;;;;;;;1.27;0.90;;;;;;;1.98;100.00;97553.47;4915189;29;20060;-84
2021/12/13 01:13:29;;;;;;;2.42;1.02;;;;;;;2.08;100.00;97560.22;4901020;29;20035;-85
2021/12/13 01:16:21;;;;;;;0.77;0.77;;;;;;;2.02;100.00;97554.25;4916300;29;20472;-85
2021/12/13 01:22:20;;;;;;;0.30;0.30;;;;;;;2.00;100.00;97541.09;4953928;29;20065;-85
2021/12/13 01:25:15;;;;;;;1.05;1.05;;;;;;;2.06;100.00;97548.00;4935285;29;20025;-85
2021/12/13 01:27:47;;;;;;;0.80;0.80;;;;;;;2.03;100.00;97556.81;4941016;29;20047;-85
2021/12/13 01:30:17;;;;;;;1.52;1.42;;;;;;;1.93;100.00;97538.69;4917700;29;20071;-84
2021/12/13 01:32:49;;;;;;;1.42;1.42;;;;;;;2.11;100.00;97554.00;4921581;29;20069;-84
2021/12/13 01:35:21;;;;;;;0.47;0.47;;;;;;;2.13;100.00;97553.03;4921844;29;20370;-85
2021/12/13 01:37:50;;;;;;;0.60;0.60;;;;;;;2.12;100.00;97550.44;4937074;29;20039;-85
2021/12/13 01:40:17;;;;;;;1.00;0.77;;;;;;;2.12;100.00;97550.44;4937217;29;20030;-85
2021/12/13 01:42:42;;;;;;;0.50;0.50;;;;;;;2.12;100.00;97574.19;4937222;29;20033;-84
2021/12/13 01:45:13;;;;;;;0.95;0.95;;;;;;;2.02;100.00;97578.00;4942186;29;20485;-84
2021/12/13 01:47:45;;;;;;;1.20;1.20;;;;;;;1.87;100.00;97555.53;4921598;29;20035;-84
2021/12/13 01:50:18;;;;;;;1.60;1.50;;;;;;;1.93;100.00;97570.34;4930273;29;20034;-84
2021/12/13 01:52:47;;;;;;;2.40;2.00;;;;;;;1.87;100.00;97559.94;4921914;29;20126;-84
2021/12/13 01:55:36;;;;;;;0.65;0.65;;;;;;;1.87;100.00;97570.50;4937384;29;20023;-83
2021/12/13 02:01:11;;;;;;;1.00;1.00;;;;;;;1.81;100.00;97546.94;4938084;29;20020;-85
2021/12/13 02:04:00;;;;;;;1.88;1.50;;;;;;;1.79;100.00;97552.25;4922472;29;20031;-85
2021/12/13 02:06:39;;;;;;;2.45;1.70;;;;;;;1.78;100.00;97565.47;4928206;29;20046;-85
2021/12/13 02:09:14;;;;;;;1.33;1.23;;;;;;;1.78;100.00;97552.28;4936971;29;20063;-85
2021/12/13 02:11:42;;;;;;;1.17;1.17;;;;;;;1.94;100.00;97557.09;4936679;29;20039;-84
2021/12/13 02:14:13;;;;;;;0.60;0.60;;;;;;;2.02;100.00;97567.44;4920542;29;20027;-84
2021/12/13 02:16:57;;;;;;;1.08;1.08;;;;;;;1.99;100.00;97549.06;4921674;29;20046;-85
2021/12/13 02:19:31;;;;;;;1.35;1.15;;;;;;;2.02;100.00;97560.41;4900000;29;20107;-85
2021/12/13 02:22:26;;;;;;;1.90;1.63;;;;;;;2.03;100.00;97571.81;4917715;29;20047;-84
2021/12/13 02:24:53;;;;;;;1.30;1.20;;;;;;;1.89;100.00;97558.13;4905019;29;20082;-84
2021/12/13 02:27:32;;;;;;;1.83;1.20;;;;;;;1.90;100.00;97560.75;4905664;29;20039;-85
2021/12/13 02:30:01;;;;;;;0.80;0.80;;;;;;;1.87;100.00;97552.03;4905037;29;20028;-85
2021/12/13 02:32:28;;;;;;;0.50;0.50;;;;;;;1.89;100.00;97573.94;4905911;29;20509;-85
2021/12/13 02:34:57;;;;;;;3.63;1.17;;;;;;;1.83;100.00;97576.75;4903178;29;20036;-85
2021/12/13 02:37:25;;;;;;;0.43;0.43;;;;;;;1.79;100.00;97589.16;4898507;29;20639;-85
2021/12/13 02:39:56;;;;;;;1.83;1.38;;;;;;;1.81;100.00;97589.13;4905853;29;20059;-85
2021/12/13 02:42:22;;;;;;;0.32;0.32;;;;;;;1.76;100.00;97588.34;4903052;29;20024;-85
2021/12/13 02:44:52;;;;;;;0.70;0.70;;;;;;;1.75;100.00;97581.38;4905733;29;20038;-85
2021/12/13 02:47:21;;;;;;;0.90;0.90;;;;;;;1.82;100.00;97589.06;4902144;29;20091;-85
2021/12/13 02:49:47;;;;;;;1.20;0.60;;;;;;;1.82;100.00;97588.19;4918261;29;20504;-85
2021/12/13 02:52:15;;;;;;;0.65;0.65;;;;;;;1.80;100.00;97569.81;4919213;29;20528;-85
2021/12/13 02:54:45;;;;;;;2.97;2.25;;;;;;;2.00;100.00;97593.84;4905334;29;20087;-84
2021/12/13 02:57:16;;;;;;;0.95;0.95;;;;;;;2.02;100.00;97591.19;4905551;29;20031;-84
2021/12/13 02:59:47;;;;;;;1.17;1.08;;;;;;;1.94;100.00;97582.63;4918654;29;20115;-85
2021/12/13 03:02:18;;;;;;;1.40;1.20;;;;;;;1.96;100.00;97593.97;4921745;29;20039;-84
2021/12/13 03:04:45;;;;;;;0.20;0.20;;;;;;;1.94;100.00;97583.47;4913431;29;20635;-84
2021/12/13 03:07:24;;;;;;;1.65;1.55;;;;;;;1.97;100.00;97590.44;4911737;29;20024;-83
2021/12/13 03:09:52;;;;;;;0.85;0.85;;;;;;;1.90;100.00;97586.25;4902262;29;20091;-84
2021/12/13 03:12:21;;;;;;;1.38;1.27;;;;;;;1.92;100.00;97587.06;4920646;29;20035;-83
2021/12/13 03:14:54;;;;;;;1.88;1.70;;;;;;;1.85;100.00;97578.44;4901955;29;20071;-84
2021/12/13 03:17:50;;;;;;;1.02;1.02;;;;;;;1.68;100.00;97540.25;4904176;29;20036;-84
2021/12/13 03:20:19;;;;;;;0.60;0.60;;;;;;;2.00;100.00;97599.13;4935499;29;20504;-83
2021/12/13 03:22:53;;;;;;;0.63;0.63;;;;;;;1.98;100.00;97594.78;4921185;29;20031;-84
2021/12/13 03:25:40;;;;;;;0.82;0.82;;;;;;;1.88;100.00;97598.56;4920525;29;20036;-85
2021/12/13 03:28:27;;;;;;;0.80;0.80;;;;;;;2.02;100.00;97596.44;4917347;29;20039;-85
2021/12/13 03:31:22;;;;;;;0.80;0.75;;;;;;;2.04;100.00;97597.25;4917958;29;20115;-84
2021/12/13 03:33:54;;;;;;;1.08;1.00;;;;;;;2.00;100.00;97587.72;4905786;29;20054;-85
2021/12/13 03:36:45;;;;;;;0.73;0.73;;;;;;;2.06;100.00;97593.66;4917370;29;20047;-85
2021/12/13 03:39:15;;;;;;;0.30;0.30;;;;;;;1.89;100.00;97584.50;4919349;29;20496;-85
2021/12/13 03:41:42;;;;;;;1.08;1.02;;;;;;;1.91;100.00;97588.81;4920350;29;20028;-85
2021/12/13 03:44:14;;;;;;;2.53;1.13;;;;;;;2.00;100.00;97588.56;4920464;29;20402;-84
2021/12/13 03:46:42;;;;;;;0.90;0.80;;;;;;;2.04;100.00;97586.72;4914795;29;20038;-85
2021/12/13 03:49:09;;;;;;;0.65;0.65;;;;;;;1.98;100.00;97578.97;4926403;29;20036;-86
2021/12/13 03:51:38;;;;;;;0.93;0.93;;;;;;;1.95;100.00;97594.88;4917253;29;20056;-84
2021/12/13 03:54:06;;;;;;;0.88;0.88;;;;;;;1.92;100.00;97590.56;4920748;29;20083;-85
2021/12/13 03:56:36;;;;;;;1.65;1.45;;;;;;;1.90;100.00;97602.06;4920664;29;20036;-84
2021/12/13 03:59:09;;;;;;;0.40;0.40;;;;;;;1.67;100.00;97581.56;4904289;29;20099;-84
2021/12/13 04:01:59;;;;;;;0.60;0.60;;;;;;;1.72;100.00;97599.91;4904257;29;20059;-84
2021/12/13 04:04:52;;;;;;;1.27;1.25;;;;;;;1.62;100.00;97584.34;4912360;29;20538;-84
2021/12/13 04:07:19;;;;;;;;;;;;;;;1.79;100.00;97593.56;4916543;29;20032;-86
2021/12/13 04:09:48;;;;;;;1.88;1.05;;;;;;;1.80;100.00;97600.56;4920148;29;20247;-85
2021/12/13 04:12:16;;;;;;;1.45;1.38;;;;;;;1.80;100.00;97587.38;4920223;29;20066;-85
2021/12/13 04:14:52;;;;;;;0.55;0.55;;;;;;;1.85;100.00;97596.03;4904897;29;20031;-86
2021/12/13 04:17:36;;;;;;;2.10;1.90;;;;;;;1.74;100.00;97579.63;4912515;29;20024;-85
2021/12/13 04:20:08;;;;;;;5.35;1.48;;;;;;;1.87;100.00;97608.28;4906197;29;20044;-85
2021/12/13 04:22:39;;;;;;;1.50;1.40;;;;;;;1.79;100.00;97591.78;4915600;29;20028;-84
2021/12/13 04:25:13;;;;;;;1.65;1.58;;;;;;;1.89;100.00;97621.41;4893151;29;20028;-84
2021/12/13 04:28:02;;;;;;;1.50;1.40;;;;;;;1.87;100.00;97633.78;4898621;29;20430;-85
2021/12/13 04:30:53;;;;;;;1.77;1.67;;;;;;;1.95;100.00;97632.66;4904815;29;20028;-86
2021/12/13 04:33:32;;;;;;;5.03;2.88;;;;;;;1.99;100.00;97631.69;4913172;29;20036;-85
2021/12/13 04:36:02;;;;;;;9.82;5.93;;;;;;;1.93;100.00;97620.44;4900935;29;20031;-84
2021/12/13 04:38:54;;;;;;;4.18;3.58;;;;;;;1.93;100.00;97633.63;4918385;29;20039;-85
2021/12/13 04:41:31;;;;;;;1.85;1.73;;;;;;;1.88;100.00;97644.28;4917386;29;20050;-86
2021/12/13 04:44:03;;;;;;;2.10;1.85;;;;;;;1.85;100.00;97636.44;4909817;29;20089;-83
2021/12/13 04:46:31;;;;;;;0.60;0.60;;;;;;;1.83;100.00;97632.13;4899159;29;20028;-83
2021/12/13 04:49:00;;;;;;;4.10;3.03;;;;;;;1.79;100.00;97622.56;4914014;29;20028;-83
2021/12/13 04:51:29;;;;;;;1.38;1.30;;;;;;;1.87;100.00;97641.69;4921033;29;20063;-83
2021/12/13 04:53:58;;;;;;;0.90;0.90;;;;;;;1.97;100.00;97664.28;4909757;29;20419;-84
2021/12/13 04:56:27;;;;;;;2.40;2.22;;;;;;;1.86;100.00;97645.22;4915291;29;20423;-83
2021/12/13 04:58:54;;;;;;;3.75;3.45;;;;;;;1.85;100.00;97660.19;4910012;29;20047;-82
2021/12/13 05:01:21;;;;;;;2.13;2.00;;;;;;;1.78;100.00;97639.28;4896152;29;20034;-84
2021/12/13 05:03:54;;;;;;;8.25;3.38;;;;;;;1.95;100.00;97660.81;4892016;29;20024;-88
2021/12/13 05:06:24;;;;;;;4.13;2.90;;;;;;;1.85;100.00;97646.13;4893152;29;20108;-86
2021/12/13 05:08:54;;;;;;;4.20;3.00;;;;;;;1.95;100.00;97666.09;4887661;29;20139;-85
2021/12/13 05:11:20;;;;;;;2.75;2.53;;;;;;;1.98;100.00;97658.97;4897808;29;20127;-83
2021/12/13 05:13:50;;;;;;;1.10;1.08;;;;;;;1.99;100.00;97665.09;4900603;29;20027;-83
2021/12/13 05:16:20;;;;;;;1.00;1.00;;;;;;;2.03;100.00;97672.03;4905532;29;20500;-82
2021/12/13 05:18:49;;;;;;;3.88;2.72;;;;;;;2.07;100.00;97681.59;4882691;29;20058;-84
2021/12/13 05:21:25;;;;;;;3.92;3.53;;;;;;;2.08;100.00;97667.50;4918167;29;20027;-84
2021/12/13 05:23:58;;;;;;;2.00;1.67;;;;;;;2.12;100.00;97670.00;4903173;29;20040;-89
2021/12/13 05:26:34;;;;;;;2.13;1.90;;;;;;;2.07;100.00;97657.84;4906186;29;20060;-90
2021/12/13 05:29:01;;;;;;;2.42;2.22;;;;;;;2.12;100.00;97677.06;4922756;29;20039;-89
2021/12/13 05:31:28;;;;;;;4.57;2.15;;;;;;;2.19;100.00;97684.75;4903021;29;20043;-88
2021/12/13 05:34:02;;;;;;;1.67;1.58;;;;;;;1.96;100.00;97660.78;4904753;29;20046;-91
2021/12/13 05:36:31;;;;;;;1.85;1.52;;;;;;;1.91;100.00;97656.50;4893404;29;20032;-90
2021/12/13 05:39:16;;;;;;;2.00;1.65;;;;;;;2.06;100.00;97679.88;4908240;29;20504;-90
2021/12/13 05:41:57;;;;;;;2.20;2.00;;;;;;;1.75;100.00;97644.66;4909598;29;20031;-90
2021/12/13 05:44:35;;;;;;;1.70;1.60;;;;;;;1.69;100.00;97650.09;4902966;29;20039;-90
2021/12/13 05:47:07;;;;;;;2.60;2.00;;;;;;;1.78;100.00;97665.66;4932395;29;20411;-89
2021/12/13 05:49:36;;;;;;;1.35;1.27;;;;;;;1.64;100.00;97653.69;4902874;29;20039;-90
2021/12/13 05:52:11;;;;;;;1.67;1.60;;;;;;;1.88;100.00;97681.19;4896365;29;20032;-89
2021/12/13 05:54:51;;;;;;;2.28;1.50;;;;;;;1.55;100.00;97626.69;4905875;29;20037;-90
2021/12/13 05:57:23;;;;;;;6.57;2.58;;;;;;;1.95;100.00;97676.63;4915504;29;20083;-91
2021/12/13 06:00:20;;;;;;;2.53;2.33;;;;;;;1.98;100.00;97685.34;4908110;29;20047;-91
2021/12/13 06:02:49;;;;;;;4.93;2.33;;;;;;;2.09;100.00;97714.09;4933750;29;20048;-91
2021/12/13 06:05:26;;;;;;;6.18;3.33;;;;;;;2.01;100.00;97695.81;4920001;29;20035;-90
2021/12/13 06:07:58;;;;;;;3.42;2.35;;;;;;;2.07;100.00;97705.31;4906984;28;20036;-91
2021/12/13 06:10:51;;;;;;;5.65;3.92;;;;;;;2.13;100.00;97721.88;4906781;29;20516;-91
2021/12/13 06:13:36;;;;;;;1.55;1.45;;;;;;;2.11;100.00;97722.81;4914606;29;20046;-91
2021/12/13 06:16:02;;;;;;;1.88;1.73;;;;;;;1.94;100.00;97693.38;4915512;29;20020;-92
2021/12/13 06:18:35;;;;;;;2.10;2.00;;;;;;;1.94;100.00;97688.94;4912240;29;20060;-92
2021/12/13 06:21:10;;;;;;;1.75;1.65;;;;;;;2.14;100.00;97723.59;4941143;29;20031;-92
2021/12/13 06:23:40;;;;;;;1.38;1.33;;;;;;;2.09;100.00;97700.91;4949046;28;20035;-92
2021/12/13 06:26:09;;;;;;;1.88;1.45;;;;;;;2.10;100.00;97692.06;4934426;29;20482;-90
2021/12/13 06:28:43;;;;;;;2.60;2.22;;;;;;;2.13;100.00;97684.06;4925103;29;20031;-91
2021/12/13 06:31:21;;;;;;;3.50;3.03;;;;;;;2.17;100.00;97691.88;4922457;29;20582;-91
2021/12/13 06:33:54;;;;;;;1.00;1.00;;;;;;;2.40;100.00;97717.63;4937067;29;20032;-89
2021/12/13 06:36:26;;;;;;;7.20;2.50;;;;;;;2.40;100.00;97722.06;4936243;29;20040;-91
2021/12/13 06:38:56;;;;;;;8.52;5.32;;;;;;;2.15;100.00;97675.19;4956440;29;20035;-89
2021/12/13 06:41:28;;;;;;;8.07;3.22;;;;;;;2.47;100.00;97732.38;4921259;29;20120;-90
2021/12/13 06:43:58;;;;;;;5.22;2.65;;;;;;;2.29;100.00;97706.50;4952823;28;20035;-91
2021/12/13 06:46:23;;;;;;;1.83;1.67;;;;;;;2.53;100.00;97731.34;4936122;29;20126;-88
2021/12/13 06:49:05;;;;;;;5.05;2.40;;;;;;;2.55;100.00;97735.69;4954153;29;20560;-89
2021/12/13 06:51:49;;;;;;;4.80;3.90;;;;;;;2.49;100.00;97733.22;4935903;29;20100;-90
2021/12/13 06:54:24;;;;;;;6.88;4.65;;;;;;;2.45;100.00;97739.50;4936297;29;20451;-92
2021/12/13 06:57:01;;;;;;;3.72;2.90;;;;;;;2.34;100.00;97704.59;4935704;29;20078;-91
2021/12/13 06:59:28;;;;;;;2.05;1.63;;;;;;;2.26;100.00;97688.13;4950071;28;20043;-90
2021/12/13 07:02:12;;;;;;;3.65;3.30;;;;;;;2.45;100.00;97717.50;4939836;29;20031;-92
2021/12/13 07:04:56;;;;;;;2.53;2.33;;;;;;;2.49;100.00;97730.56;4939826;29;20027;-91
2021/12/13 07:07:30;;;;;;;2.63;2.42;;;;;;;2.35;100.00;97701.06;4941905;29;20483;-92
2021/12/13 07:10:03;;;;;;;5.78;2.85;;;;;;;2.52;100.00;97741.03;4943093;29;20050;-92
2021/12/13 07:12:31;;;;;;;4.15;2.53;;;;;;;2.64;100.00;97755.72;4933040;29;20584;-90
2021/12/13 07:14:58;;;;;;;5.32;3.38;;;;;;;2.42;100.00;97712.31;4928237;29;20031;-91
2021/12/13 07:17:32;;;;;;;2.78;2.58;;;;;;;2.34;100.00;97688.75;4931454;29;20035;-90
2021/12/13 07:19:59;;;;;;;2.25;1.90;;;;;;;2.66;100.00;97741.56;4945810;29;20058;-89
2021/12/13 07:22:46;;;;;;;2.28;2.13;;;;;;;2.28;100.00;97665.16;4940467;29;20066;-92
2021/12/13 07:25:15;;;;;;;4.22;3.17;;;;;;;2.38;100.00;97666.66;4951696;29;20082;-90
2021/12/13 07:27:57;;;;;;;8.02;4.03;;;;;;;2.77;100.00;97738.59;4942693;29;20475;-92
2021/12/13 07:30:35;;;;;;;2.10;1.98;;;;;;;2.31;100.00;97659.81;4931527;29;20483;-94
2021/12/13 07:33:18;;;;;;;2.47;2.10;;;;;;;2.63;100.00;97694.09;4925335;29;20027;-92
2021/12/13 07:36:00;;;;;;;;;;;;;;;;;;;;;
2021/12/13 07:38:26;;;;;;;6.43;4.75;;;;;;;2.71;100.00;97689.47;4941412;29;20091;-90
2021/12/13 07:41:05;;;;;;;2.15;2.05;;;;;;;2.77;100.00;97690.22;4924014;29;20111;-92
2021/12/13 07:43:39;;;;;;;7.68;4.30;;;;;;;2.67;100.00;97698.41;4924622;29;20066;-90
2021/12/13 07:46:38;;;;;;;;;;;;;;;;;;;;;
2021/12/13 07:49:21;;;;;;;3.08;2.20;;;;;;;2.75;100.00;97716.66;4942056;29;20495;-90
2021/12/13 07:51:58;;;;;;;3.17;2.60;;;;;;;2.67;100.00;97695.75;4925200;29;20047;-92
2021/12/13 07:54:45;;;;;;;9.77;5.57;;;;;;;3.13;100.00;97765.75;4939809;29;20027;-92
2021/12/13 07:57:25;;;;;;;8.52;4.95;;;;;;;2.78;100.00;97705.13;4924583;29;20035;-90
2021/12/13 07:59:52;;;;;;;3.40;3.10;;;;;;;3.01;100.00;97706.22;4923933;29;20090;-91
2021/12/13 08:02:31;;;;;;;4.28;2.47;;;;;;;3.14;100.00;97756.91;4925240;29;20436;-91
2021/12/13 08:05:12;;;;;;;1.15;1.15;;;;;;;3.23;100.00;97761.94;4940846;29;20110;-91
2021/12/13 08:08:00;;;;;;;4.05;2.75;;;;;;;3.28;100.00;97773.22;4939826;29;20035;-91
2021/12/13 08:10:36;;;;;;;3.78;3.03;;;;;;;3.23;100.00;97757.50;4905290;29;20047;-90
2021/12/13 08:13:17;;;;;;;3.13;2.60;;;;;;;3.19;100.00;97760.28;4904483;29;20051;-90
2021/12/13 08:15:49;;;;;;;3.67;2.83;;;;;;;3.39;100.00;97781.69;4920429;29;20032;-91
2021/12/13 08:18:28;;;;;;;2.13;2.00;;;;;;;3.52;100.00;97780.41;4950783;28;20094;-92
2021/12/13 08:21:07;;;;;;;2.60;2.20;;;;;;;3.53;100.00;97758.38;4923223;29;20404;-90
2021/12/13 08:23:55;;;;;;;8.80;3.63;;;;;;;3.68;100.00;97757.88;4905423;29;20416;-92
2021/12/13 08:26:36;;;;;;;6.93;4.35;;;;;;;3.94;100.00;97766.78;4920392;29;20036;-92
2021/12/13 08:29:18;;;;;;;5.80;3.90;;;;;;;4.15;100.00;97803.97;4913226;29;20036;-92
2021/12/13 08:32:25;;;;;;;2.92;2.72;;;;;;;4.24;100.00;97802.84;4914467;29;20392;-92
2021/12/13 08:35:00;;;;;;;4.50;3.05;;;;;;;4.14;100.00;97782.88;4926062;29;20032;-92
2021/12/13 08:37:45;;;;;;;6.05;4.60;;;;;;;4.05;100.00;97765.50;4911828;29;20118;-91
2021/12/13 08:40:33;;;;;;;2.55;2.35;;;;;;;3.75;100.00;97730.31;4910430;29;20042;-91
2021/12/13 08:42:59;;;;;;;7.18;4.00;;;;;;;4.17;100.00;97781.00;4908717;29;20027;-92
2021/12/13 08:45:39;;;;;;;9.60;4.13;;;;;;;4.12;100.00;97745.00;4908041;29;20047;-93
2021/12/13 08:48:10;;;;;;;2.65;2.53;;;;;;;4.33;100.00;97768.09;4904360;29;20031;-92
2021/12/13 08:50:45;;;;;;;4.80;3.72;;;;;;;4.33;100.00;97781.34;4903861;29;20052;-91
2021/12/13 08:53:35;;;;;;;6.50;2.88;;;;;;;4.63;100.00;97779.44;4889058;29;20036;-92
2021/12/13 08:56:20;;;;;;;9.77;5.22;;;;;;;4.38;100.00;97776.75;4891017;29;20032;-90
2021/12/13 08:59:12;;;;;;;4.30;3.92;;;;;;;4.27;100.00;97768.31;4900997;29;20040;-90
2021/12/13 09:01:41;;;;;;;3.03;2.47;;;;;;;4.28;100.00;97802.66;4905476;29;20038;-89
2021/12/13 09:04:08;;;;;;;3.67;2.78;;;;;;;4.06;100.00;97780.44;4919868;29;20032;-89
2021/12/13 09:06:35;;;;;;;3.55;2.38;;;;;;;3.95;100.00;97768.50;4907745;29;20032;-90
2021/12/13 09:09:19;;;;;;;3.00;2.75;;;;;;;4.10;100.00;97795.31;4924118;29;20024;-86
2021/12/13 09:11:58;;;;;;;4.82;2.88;;;;;;;4.12;100.00;97776.78;4906539;29;20056;-88
2021/12/13 09:14:36;;;;;;;1.98;1.70;;;;;;;4.33;100.00;97795.47;4905418;29;20032;-90
2021/12/13 09:17:10;;;;;;;4.05;2.67;;;;;;;4.48;100.00;97787.91;4919316;29;20036;-89
2021/12/13 09:19:48;;;;;;;1.67;1.58;;;;;;;4.43;100.00;97793.34;4920329;29;20054;-90
2021/12/13 09:22:55;;;;;;;2.90;1.23;;;;;;;4.47;100.00;97794.97;4921758;29;20039;-89
2021/12/13 09:25:34;;;;;;;3.33;2.63;;;;;;;4.18;100.00;97736.88;4874177;29;20100;-91
2021/12/13 09:28:18;;;;;;;6.20;2.65;;;;;;;4.62;100.00;97783.84;4885095;29;20026;-89
2021/12/13 09:30:59;;;;;;;4.65;2.83;;;;;;;4.24;100.00;97711.06;4900200;29;20033;-90
2021/12/13 09:33:41;;;;;;;2.03;1.88;;;;;;;4.27;100.00;97707.44;4900548;29;20090;-89
2021/12/13 09:36:12;;;;;;;6.38;2.13;;;;;;;4.30;100.00;97763.78;4883186;29;20029;-90
2021/12/13 09:39:02;;;;;;;3.97;3.33;;;;;;;4.25;100.00;97770.13;4902334;29;20059;-90
2021/12/13 09:41:30;;;;;;;2.17;1.92;;;;;;;4.38;100.00;97782.03;4922019;29;20063;-87
2021/12/13 09:44:05;;;;;;;5.78;2.80;;;;;;;4.61;100.00;97766.25;4917890;29;20052;-87
2021/12/13 09:46:39;;;;;;;7.50;4.07;;;;;;;5.04;100.00;97791.22;4904832;29;20055;-89
2021/12/13 09:49:29;;;;;;;4.68;3.35;;;;;;;5.12;100.00;97790.00;4920378;29;20122;-91
2021/12/13 09:52:15;;;;;;;5.53;1.75;;;;;;;4.70;100.00;97781.81;4905080;29;20039;-78
2021/12/13 09:54:51;;;;;;;11.77;3.50;;;;;;;4.70;100.00;97755.34;4935263;29;20047;-88
2021/12/13 09:57:22;;;;;;;3.10;2.45;;;;;;;4.77;99.84;97767.41;4912687;29;20032;-85
2021/12/13 09:59:52;;;;;;;1.55;1.45;;;;;;;4.66;100.00;97742.22;4882960;29;20520;-86
2021/12/13 10:02:31;;;;;;;6.72;4.32;;;;;;;4.78;100.00;97747.97;4881680;29;20100;-86
2021/12/13 10:04:57;;;;;;;8.43;3.67;;;;;;;5.14;98.80;97756.34;4903411;29;20032;-90
2021/12/13 10:07:30;;;;;;;8.90;3.60;;;;;;;5.48;98.45;97774.50;4910043;29;20043;-89
2021/12/13 10:09:59;;;;;;;2.00;1.88;;;;;;;5.70;95.48;97762.16;4919623;29;20035;-89
2021/12/13 10:12:44;;;;;;;4.60;2.90;;;;;;;6.06;90.96;97782.91;4902560;29;20058;-89
2021/12/13 10:15:53;;;;;;;3.25;2.08;;;;;;;6.28;88.42;97770.44;4911888;29;20035;-90
2021/12/13 10:18:25;;;;;;;4.03;3.00;;;;;;;6.28;87.85;97765.13;4903103;29;20035;-88
2021/12/13 10:21:07;;;;;;;1.80;1.65;;;;;;;6.06;88.25;97769.63;4896816;29;20122;-89
2021/12/13 10:23:36;;;;;;;6.25;3.17;;;;;;;5.77;87.52;97768.94;4901195;29;20036;-89
2021/12/13 10:26:09;;;;;;;1.23;1.17;;;;;;;5.87;89.56;97786.28;4912880;29;20055;-88
2021/12/13 10:28:39;;;;;;;2.88;1.50;;;;;;;6.17;89.00;97760.28;4913570;29;20024;-89
2021/12/13 10:31:17;;;;;;;2.72;2.53;;;;;;;6.15;87.92;97763.94;4903516;29;20161;-88
2021/12/13 10:33:46;;;;;;;2.20;2.00;;;;;;;5.79;90.79;97782.16;4910425;29;20047;-89
2021/12/13 10:36:15;;;;;;;6.75;2.92;;;;;;;5.56;90.13;97753.88;4914147;29;20423;-88
2021/12/13 10:38:49;;;;;;;2.65;2.33;;;;;;;5.58;92.04;97767.94;4891081;29;20477;-90
2021/12/13 10:41:23;;;;;;;3.78;2.78;;;;;;;5.57;92.50;97766.19;4893039;29;20031;-88
2021/12/13 10:43:55;;;;;;;5.13;2.55;;;;;;;5.83;91.32;97779.31;4920720;29;20042;-88
2021/12/13 10:46:26;;;;;;;6.60;4.35;;;;;;;6.08;88.86;97776.59;4902976;29;20032;-86
2021/12/13 10:48:59;;;;;;;6.70;4.43;;;;;;;5.73;91.10;97754.06;4902719;29;20036;-86
2021/12/13 10:51:39;;;;;;;10.45;7.18;;;;;;;5.87;89.44;97772.16;4901882;29;20032;-89
2021/12/13 10:54:13;;;;;;;3.38;2.53;;;;;;;5.58;88.85;97752.00;4913315;29;20503;-87
2021/12/13 10:56:43;;;;;;;2.20;2.05;;;;;;;6.00;89.58;97766.25;4907122;29;20550;-88
2021/12/13 10:59:17;;;;;;;4.93;2.80;;;;;;;5.77;90.13;97739.75;4907597;29;20036;-87
2021/12/13 11:01:54;;;;;;;2.45;2.25;;;;;;;5.78;88.39;97751.25;4907166;29;20515;-88
2021/12/13 11:04:25;;;;;;;3.92;3.08;;;;;;;5.65;89.03;97753.50;4904279;29;20115;-88
2021/12/13 11:06:51;;;;;;;7.70;3.13;;;;;;;5.57;89.88;97746.78;4906802;29;20098;-89
2021/12/13 11:09:21;;;;;;;2.65;2.45;;;;;;;5.76;90.12;97740.69;4904374;29;20119;-89
2021/12/13 11:11:54;;;;;;;7.00;4.15;;;;;;;5.90;89.15;97733.06;4902226;29;20570;-88
2021/12/13 11:14:22;;;;;;;13.30;5.22;;;;;;;6.05;87.80;97733.38;4892004;29;20039;-88
2021/12/13 11:16:51;;;;;;;9.45;4.35;;;;;;;5.84;89.10;97725.31;4905220;29;20033;-86
2021/12/13 11:19:21;;;;;;;5.25;3.20;;;;;;;5.93;86.45;97732.94;4903363;29;20071;-89
2021/12/13 11:21:49;;;;;;;6.80;2.22;;;;;;;5.52;87.38;97724.84;4908587;29;20408;-88
2021/12/13 11:24:24;;;;;;;7.97;3.20;;;;;;;5.69;88.45;97739.19;4902921;29;20042;-89
2021/12/13 11:26:57;;;;;;;3.55;2.95;;;;;;;5.54;87.99;97725.69;4908435;29;20027;-89
2021/12/13 11:29:24;;;;;;;7.75;6.18;;;;;;;5.76;87.95;97729.19;4904916;29;20034;-89
2021/12/13 11:31:52;;;;;;;3.50;2.97;;;;;;;5.82;88.61;97756.34;4896651;29;20043;-89
2021/12/13 11:34:28;;;;;;;11.90;4.43;;;;;;;5.77;89.18;97757.47;4905856;29;20488;-89
2021/12/13 11:37:11;;;;;;;2.55;1.75;;;;;;;5.68;89.08;97755.19;4922783;29;20538;-89
2021/12/13 11:39:48;;;;;;;6.93;3.40;;;;;;;5.60;88.67;97730.75;4922424;29;20507;-89
2021/12/13 11:42:44;;;;;;;2.78;2.47;;;;;;;5.85;89.44;97753.59;4899000;29;20096;-89
2021/12/13 11:45:23;;;;;;;2.47;2.28;;;;;;;5.59;91.72;97716.63;4910025;29;20035;-90
2021/12/13 11:48:26;;;;;;;4.45;2.58;;;;;;;5.84;91.11;97754.53;4934871;29;20028;-89
2021/12/13 11:51:04;;;;;;;3.33;3.03;;;;;;;5.93;91.04;97754.19;4922078;29;20481;-89
2021/12/13 11:53:59;;;;;;;3.85;1.42;;;;;;;6.07;89.48;97737.69;4919073;29;20500;-91
2021/12/13 11:56:42;;;;;;;4.57;2.95;;;;;;;6.18;88.70;97747.88;4913003;29;20087;-90
2021/12/13 11:59:36;;;;;;;3.53;2.92;;;;;;;6.02;90.27;97744.09;4919358;29;20091;-89
2021/12/13 12:02:34;;;;;;;3.20;2.63;;;;;;;6.07;90.11;97734.16;4919074;29;20484;-88
2021/12/13 12:05:11;;;;;;;2.25;1.83;;;;;;;6.05;89.74;97743.97;4894187;29;20500;-77
2021/12/13 12:07:56;;;;;;;1.42;1.25;;;;;;;5.94;89.81;97744.41;4912978;29;20127;-77
2021/12/13 12:10:50;;;;;;;0.93;0.93;;;;;;;5.99;88.25;97738.00;4922232;29;20113;-77
2021/12/13 12:13:50;;;;;;;1.75;1.65;;;;;;;5.96;88.31;97747.88;4908749;29;20058;-77
2021/12/13 12:16:16;;;;;;;0.77;0.77;;;;;;;5.90;88.69;97746.34;4916279;29;20527;-77
2021/12/13 12:18:41;;;;;;;2.42;1.50;;;;;;;6.05;89.80;97741.31;4915651;29;20065;-76
2021/12/13 12:21:36;;;;;;;1.23;1.20;;;;;;;6.30;87.86;97747.38;4926282;29;20499;-80
2021/12/13 12:24:11;;;;;;;2.55;1.77;;;;;;;5.95;86.14;97741.72;4916060;29;20035;-79